SETU/TUA METAR and TAF weather

Enter ICAO airport designator
Station Type Date Time Source
SETU METAR 2019/12/06 21:00 UTC NOAA

SETU 062100Z 18005KT 9999 BKN023 16/10 Q1029


Station Type Date Time Source
SETU Decoded METAR 2019/12/06 21:00 UTC NOAA

Tulcan / El Rosal, Ecuador (SETU) 00-49N 077-42W
Dec 06, 2019 - 04:00 PM EST / 2019.12.06 2100 UTC
Wind: from the S (180 degrees) at 6 MPH (5 KT):0
Visibility: greater than 7 mile(s):0
Sky conditions: mostly cloudy
Temperature: 60 F (16 C)
Dew Point: 50 F (10 C)
Relative Humidity: 67%
Pressure (altimeter): 30.39 in. Hg (1029 hPa)
ob: SETU 062100Z 18005KT 9999 BKN023 16/10 Q1029
cycle: 21

Station Type Date Time Source
SETU TAF UTC NOAA

Error!

Example: see airport list